Time;durP1;ratioP1;P1;durP2;ratioP2;P2;SDS_P1;SDS_P2;PMS_P1;PMS_P2;Temp;Humidity;BMP_temperature;BMP_pressure;BME280_temperature;BME280_humidity;BME280_pressure;Samples;Min_cycle;Max_cycle;Signal;HPM_P1;HPM_P2
2022/06/06 00:00:39;;;;;;;40.25;24.83;;;;;;;;;;5041217;28;20591;-74
2022/06/06 00:03:05;;;;;;;39.55;23.88;;;;;;;;;;5045489;28;20205;-74
2022/06/06 00:05:30;;;;;;;42.65;24.92;;;;;;;;;;5038030;28;20635;-74
2022/06/06 00:07:55;;;;;;;37.20;23.23;;;;;;;;;;5042167;28;20206;-74
2022/06/06 00:10:20;;;;;;;73.10;28.58;;;;;;;;;;5045096;28;20195;-74
2022/06/06 00:12:46;;;;;;;37.97;23.15;;;;;;;;;;5047992;28;20184;-74
2022/06/06 00:15:14;;;;;;;47.70;25.77;;;;;;;;;;5042410;28;20225;-74
2022/06/06 00:17:39;;;;;;;39.13;23.50;;;;;;;;;;5043480;28;20181;-74
2022/06/06 00:20:05;;;;;;;42.97;23.00;;;;;;;;;;5044895;28;20574;-75
2022/06/06 00:22:30;;;;;;;39.72;22.42;;;;;;;;;;5041951;28;20259;-74
2022/06/06 00:24:55;;;;;;;38.33;20.75;;;;;;;;;;5043231;28;20219;-74
2022/06/06 00:27:20;;;;;;;41.17;21.25;;;;;;;;;;5044067;28;21419;-74
2022/06/06 00:29:45;;;;;;;39.90;21.50;;;;;;;;;;5050458;28;20276;-74
2022/06/06 00:34:54;;;;;;;41.42;22.83;;;;;;;;;;5042913;28;20629;-74
2022/06/06 00:37:23;;;;;;;39.80;22.02;;;;;;;;;;5042687;28;20269;-74
2022/06/06 00:39:49;;;;;;;38.70;20.67;;;;;;;;;;5038846;28;20266;-73
2022/06/06 00:42:23;;;;;;;40.80;22.67;;;;;;;;;;5032875;28;20692;-74
2022/06/06 00:45:08;;;;;;;48.42;24.33;;;;;;;;;;5042011;28;20619;-74
2022/06/06 00:47:34;;;;;;;40.08;22.50;;;;;;;;;;5033270;28;20185;-74
2022/06/06 00:50:01;;;;;;;40.88;22.08;;;;;;;;;;5030740;28;20174;-74
2022/06/06 00:52:30;;;;;;;45.38;23.58;;;;;;;;;;5035635;28;20217;-74
2022/06/06 00:54:57;;;;;;;44.42;24.08;;;;;;;;;;5045318;28;20733;-74
2022/06/06 00:57:25;;;;;;;36.25;21.45;;;;;;;;;;5044788;28;20546;-74
2022/06/06 00:59:51;;;;;;;38.30;21.20;;;;;;;;;;5041355;28;20269;-74
2022/06/06 01:02:17;;;;;;;44.33;22.77;;;;;;;;;;5038488;28;20286;-75
2022/06/06 01:04:43;;;;;;;39.50;21.13;;;;;;;;;;5045400;28;20255;-75
2022/06/06 01:07:09;;;;;;;37.65;21.25;;;;;;;;;;5043330;28;20185;-72
2022/06/06 01:09:35;;;;;;;35.20;20.13;;;;;;;;;;5041985;28;20277;-73
2022/06/06 01:12:02;;;;;;;35.85;18.80;;;;;;;;;;5030304;28;20316;-74
2022/06/06 01:14:29;;;;;;;28.52;16.95;;;;;;;;;;5039573;28;20188;-73
2022/06/06 01:16:54;;;;;;;31.73;18.45;;;;;;;;;;5039331;28;20702;-72
2022/06/06 01:19:19;;;;;;;32.28;17.63;;;;;;;;;;5040226;28;20182;-73
2022/06/06 01:22:03;;;;;;;25.70;16.30;;;;;;;;;;5045192;28;20185;-73
2022/06/06 01:24:31;;;;;;;28.60;16.23;;;;;;;;;;5040515;28;20266;-75
2022/06/06 01:27:02;;;;;;;26.77;14.98;;;;;;;;;;5037014;28;20205;-74
2022/06/06 01:29:29;;;;;;;25.42;15.15;;;;;;;;;;5042564;28;20183;-75
2022/06/06 01:32:03;;;;;;;24.02;14.35;;;;;;;;;;5041176;28;20300;-73
2022/06/06 01:34:30;;;;;;;24.58;15.55;;;;;;;;;;5045401;28;20659;-73
2022/06/06 01:36:55;;;;;;;24.67;15.88;;;;;;;;;;5039972;28;20181;-73
2022/06/06 01:39:22;;;;;;;25.88;15.50;;;;;;;;;;5042827;28;20189;-73
2022/06/06 01:41:47;;;;;;;26.50;16.23;;;;;;;;;;5043023;28;20204;-73
2022/06/06 01:44:15;;;;;;;30.20;16.73;;;;;;;;;;5033874;28;20201;-75
2022/06/06 01:46:42;;;;;;;30.83;18.02;;;;;;;;;;5034861;28;20205;-73
2022/06/06 01:49:10;;;;;;;30.42;17.40;;;;;;;;;;5034490;28;20686;-73
2022/06/06 01:51:35;;;;;;;32.42;18.33;;;;;;;;;;5044372;28;20273;-73
2022/06/06 01:54:00;;;;;;;32.30;18.92;;;;;;;;;;5042528;28;20280;-73
2022/06/06 01:56:28;;;;;;;31.45;17.58;;;;;;;;;;5030520;28;20210;-75
2022/06/06 01:58:53;;;;;;;36.65;20.05;;;;;;;;;;5035382;28;20205;-75
2022/06/06 02:01:19;;;;;;;35.38;19.02;;;;;;;;;;5039246;28;20189;-73
2022/06/06 02:03:44;;;;;;;33.83;20.25;;;;;;;;;;5039876;28;20206;-73
2022/06/06 02:06:10;;;;;;;32.20;19.92;;;;;;;;;;5032902;28;20229;-73
2022/06/06 02:08:35;;;;;;;37.70;20.58;;;;;;;;;;5035789;28;20185;-73
2022/06/06 02:11:00;;;;;;;37.85;22.10;;;;;;;;;;5038252;28;20618;-74
2022/06/06 02:13:26;;;;;;;37.85;22.33;;;;;;;;;;5043584;28;20182;-73
2022/06/06 02:15:51;;;;;;;38.28;20.60;;;;;;;;;;5043363;28;20197;-74
2022/06/06 02:18:17;;;;;;;38.63;22.23;;;;;;;;;;5042687;28;20186;-73
2022/06/06 02:20:42;;;;;;;36.70;21.33;;;;;;;;;;5050536;28;20177;-73
2022/06/06 02:23:07;;;;;;;34.92;21.25;;;;;;;;;;5037799;28;20641;-74
2022/06/06 02:25:33;;;;;;;42.05;23.08;;;;;;;;;;5046867;28;20208;-73
2022/06/06 02:27:59;;;;;;;39.67;21.85;;;;;;;;;;5043764;28;20193;-73
2022/06/06 02:30:26;;;;;;;35.67;21.20;;;;;;;;;;5044786;28;20636;-73
2022/06/06 02:32:51;;;;;;;41.83;22.23;;;;;;;;;;5038510;28;20188;-73
2022/06/06 02:35:18;;;;;;;36.88;21.17;;;;;;;;;;5038228;28;20210;-74
2022/06/06 02:37:44;;;;;;;37.13;21.20;;;;;;;;;;5039062;28;20193;-74
2022/06/06 02:40:10;;;;;;;35.72;20.92;;;;;;;;;;5044300;28;20659;-74
2022/06/06 02:42:37;;;;;;;40.10;21.75;;;;;;;;;;5045732;28;20193;-74
2022/06/06 02:45:03;;;;;;;39.28;23.20;;;;;;;;;;5044016;28;20206;-74
2022/06/06 02:47:28;;;;;;;40.60;24.17;;;;;;;;;;5042602;28;20178;-76
2022/06/06 02:49:54;;;;;;;38.80;21.92;;;;;;;;;;5042772;28;20553;-72
2022/06/06 02:52:20;;;;;;;42.05;21.88;;;;;;;;;;5042643;28;20170;-75
2022/06/06 02:54:45;;;;;;;39.53;22.73;;;;;;;;;;5045144;28;20220;-75
2022/06/06 02:57:10;;;;;;;38.50;22.23;;;;;;;;;;5047365;28;20235;-75
2022/06/06 02:59:37;;;;;;;40.00;21.08;;;;;;;;;;5047807;28;20227;-74
2022/06/06 03:02:03;;;;;;;45.40;23.80;;;;;;;;;;5033504;28;20228;-73
2022/06/06 03:04:28;;;;;;;41.97;21.58;;;;;;;;;;5046990;28;20209;-73
2022/06/06 03:06:55;;;;;;;42.03;22.75;;;;;;;;;;5045567;28;20316;-73
2022/06/06 03:09:20;;;;;;;35.60;21.73;;;;;;;;;;5048188;28;20174;-73
2022/06/06 03:11:55;;;;;;;45.63;23.15;;;;;;;;;;5046414;28;20201;-74
2022/06/06 03:14:23;;;;;;;41.65;21.63;;;;;;;;;;5046473;28;20184;-74
2022/06/06 03:22:43;;;;;;;42.47;22.65;;;;;;;;;;5046179;28;20243;-74
2022/06/06 03:25:08;;;;;;;39.10;21.50;;;;;;;;;;5041185;28;20714;-74
2022/06/06 03:27:39;;;;;;;42.17;21.73;;;;;;;;;;5048921;28;20185;-74
2022/06/06 03:30:13;;;;;;;40.47;21.25;;;;;;;;;;5048670;28;20262;-74
2022/06/06 03:32:44;;;;;;;42.10;21.10;;;;;;;;;;5052799;28;20186;-74
2022/06/06 03:35:18;;;;;;;41.92;20.13;;;;;;;;;;5038057;28;20762;-74
2022/06/06 03:37:49;;;;;;;37.78;21.27;;;;;;;;;;5045231;28;20181;-74
2022/06/06 03:40:20;;;;;;;37.97;21.00;;;;;;;;;;5045811;28;20247;-74
2022/06/06 03:42:46;;;;;;;39.80;22.63;;;;;;;;;;5041812;28;20212;-74
2022/06/06 03:45:38;;;;;;;37.05;20.17;;;;;;;;;;5046680;28;20194;-74
2022/06/06 03:48:06;;;;;;;38.10;22.85;;;;;;;;;;5043190;28;20671;-74
2022/06/06 03:50:50;;;;;;;36.08;21.27;;;;;;;;;;5050366;28;20186;-74
2022/06/06 03:53:35;;;;;;;40.03;21.33;;;;;;;;;;5047412;28;20260;-74
2022/06/06 03:56:00;;;;;;;40.65;22.75;;;;;;;;;;5049872;28;20240;-74
2022/06/06 03:58:28;;;;;;;41.22;21.90;;;;;;;;;;5047120;28;20186;-74
2022/06/06 04:00:55;;;;;;;43.30;25.38;;;;;;;;;;5044063;28;22195;-74
2022/06/06 04:03:21;;;;;;;47.00;24.33;;;;;;;;;;5044986;28;20198;-74
2022/06/06 04:05:47;;;;;;;51.63;26.48;;;;;;;;;;5052856;28;20197;-74
2022/06/06 04:08:13;;;;;;;50.00;25.38;;;;;;;;;;5044788;28;20193;-74
2022/06/06 04:10:48;;;;;;;52.95;28.63;;;;;;;;;;5042204;28;20187;-74
2022/06/06 04:13:19;;;;;;;46.10;23.80;;;;;;;;;;5046333;28;20182;-73
2022/06/06 04:15:56;;;;;;;50.88;24.58;;;;;;;;;;5038563;28;20212;-74
2022/06/06 04:18:23;;;;;;;42.47;23.10;;;;;;;;;;5046096;28;20564;-74
2022/06/06 04:20:49;;;;;;;44.33;21.10;;;;;;;;;;5038445;28;20181;-74
2022/06/06 04:23:17;;;;;;;38.63;20.23;;;;;;;;;;5039095;28;20581;-74
2022/06/06 04:26:01;;;;;;;35.33;18.85;;;;;;;;;;5038641;28;20961;-73
2022/06/06 04:28:39;;;;;;;25.80;15.50;;;;;;;;;;5042459;28;20190;-74
2022/06/06 04:31:24;;;;;;;28.17;15.15;;;;;;;;;;5046182;28;20174;-73
2022/06/06 04:33:52;;;;;;;22.58;14.13;;;;;;;;;;5035924;28;20198;-73
2022/06/06 04:36:17;;;;;;;18.65;13.13;;;;;;;;;;5045440;28;20212;-73
2022/06/06 04:38:48;;;;;;;26.10;15.05;;;;;;;;;;5046914;28;20178;-73
2022/06/06 04:41:16;;;;;;;24.27;14.88;;;;;;;;;;5053308;28;20223;-74
2022/06/06 04:43:46;;;;;;;20.65;15.50;;;;;;;;;;5043818;28;20274;-73
2022/06/06 04:46:11;;;;;;;24.70;16.60;;;;;;;;;;5052451;28;20194;-74
2022/06/06 04:48:37;;;;;;;32.78;21.27;;;;;;;;;;5044717;28;20176;-73
2022/06/06 04:51:03;;;;;;;34.30;23.67;;;;;;;;;;5044931;28;20536;-73
2022/06/06 04:53:30;;;;;;;32.45;22.80;;;;;;;;;;5044184;28;20217;-73
2022/06/06 04:55:56;;;;;;;35.30;22.98;;;;;;;;;;5050351;28;20270;-74
2022/06/06 04:58:22;;;;;;;27.73;20.80;;;;;;;;;;5046880;28;20647;-73
2022/06/06 05:00:47;;;;;;;31.83;20.67;;;;;;;;;;5046607;28;20182;-74
2022/06/06 05:03:15;;;;;;;28.98;19.05;;;;;;;;;;5040961;28;20202;-73
2022/06/06 05:05:48;;;;;;;25.92;19.80;;;;;;;;;;5048804;28;20201;-73
2022/06/06 05:08:19;;;;;;;28.05;20.15;;;;;;;;;;5044121;28;20659;-73
2022/06/06 05:10:44;;;;;;;26.75;19.48;;;;;;;;;;5052779;28;20204;-74
2022/06/06 05:13:26;;;;;;;25.92;18.00;;;;;;;;;;5039915;28;20190;-74
2022/06/06 05:16:06;;;;;;;23.40;17.35;;;;;;;;;;5036814;28;20229;-73
2022/06/06 05:18:34;;;;;;;21.77;16.48;;;;;;;;;;5043663;28;20247;-73
2022/06/06 05:21:21;;;;;;;21.40;15.35;;;;;;;;;;5042549;28;20239;-73
2022/06/06 05:23:52;;;;;;;16.15;12.73;;;;;;;;;;5035964;28;20289;-73
2022/06/06 05:26:17;;;;;;;15.98;11.80;;;;;;;;;;5046730;28;20208;-74
2022/06/06 05:29:00;;;;;;;16.92;11.55;;;;;;;;;;5049360;28;20174;-74
2022/06/06 05:31:26;;;;;;;15.70;11.45;;;;;;;;;;5050711;28;20208;-74
2022/06/06 05:34:14;;;;;;;17.90;11.23;;;;;;;;;;5045470;28;20209;-73
2022/06/06 05:36:55;;;;;;;13.98;9.77;;;;;;;;;;5043319;28;20310;-73
2022/06/06 05:39:20;;;;;;;11.45;9.27;;;;;;;;;;5043515;28;20178;-73
2022/06/06 05:41:48;;;;;;;14.60;9.73;;;;;;;;;;5050182;28;20276;-73
2022/06/06 05:44:13;;;;;;;14.48;9.02;;;;;;;;;;5050618;28;20472;-74
2022/06/06 05:46:56;;;;;;;12.82;8.93;;;;;;;;;;5051910;28;20185;-73
2022/06/06 05:49:32;;;;;;;9.73;7.90;;;;;;;;;;5039652;28;20191;-73
2022/06/06 05:52:06;;;;;;;11.43;7.72;;;;;;;;;;5049476;28;20239;-73
2022/06/06 05:54:31;;;;;;;12.75;7.68;;;;;;;;;;5040422;28;20181;-73
2022/06/06 05:56:56;;;;;;;13.50;7.82;;;;;;;;;;5048582;28;20239;-73
2022/06/06 05:59:45;;;;;;;9.85;7.20;;;;;;;;;;5039602;28;20276;-73
2022/06/06 06:02:25;;;;;;;14.23;7.93;;;;;;;;;;5040342;28;20725;-73
2022/06/06 06:05:09;;;;;;;9.45;7.22;;;;;;;;;;5044955;28;20734;-73
2022/06/06 06:07:34;;;;;;;12.95;6.82;;;;;;;;;;5047073;28;20192;-74
2022/06/06 06:10:08;;;;;;;12.85;7.63;;;;;;;;;;5043487;28;20268;-73
2022/06/06 06:12:51;;;;;;;10.88;6.45;;;;;;;;;;5043019;28;20184;-73
2022/06/06 06:15:19;;;;;;;12.10;6.38;;;;;;;;;;5050459;28;20194;-73
2022/06/06 06:17:48;;;;;;;9.65;7.28;;;;;;;;;;5044796;28;20181;-73
2022/06/06 06:20:16;;;;;;;14.55;8.52;;;;;;;;;;5041927;28;20650;-73
2022/06/06 06:22:44;;;;;;;9.25;7.20;;;;;;;;;;5041789;28;20177;-73
2022/06/06 06:25:10;;;;;;;12.00;7.80;;;;;;;;;;5050521;28;20702;-73
2022/06/06 06:27:36;;;;;;;9.70;6.45;;;;;;;;;;5046870;28;21187;-74
2022/06/06 06:30:02;;;;;;;10.68;8.02;;;;;;;;;;5048391;28;20308;-73
2022/06/06 06:32:27;;;;;;;11.05;7.55;;;;;;;;;;5048932;28;20190;-73
2022/06/06 06:34:55;;;;;;;12.27;8.15;;;;;;;;;;5050602;28;20573;-73
2022/06/06 06:37:31;;;;;;;8.18;6.18;;;;;;;;;;5049248;28;20303;-72
2022/06/06 06:40:05;;;;;;;11.77;7.65;;;;;;;;;;5048191;28;20181;-73
2022/06/06 06:42:33;;;;;;;11.20;6.82;;;;;;;;;;5050142;28;20177;-75
2022/06/06 06:45:15;;;;;;;12.88;7.20;;;;;;;;;;5040926;28;20207;-73
2022/06/06 06:47:42;;;;;;;11.77;6.80;;;;;;;;;;5046421;28;20173;-73
2022/06/06 06:50:15;;;;;;;8.85;6.30;;;;;;;;;;5043065;28;20655;-73
2022/06/06 06:52:43;;;;;;;7.68;5.78;;;;;;;;;;5046784;28;20174;-73
2022/06/06 06:55:11;;;;;;;10.50;6.55;;;;;;;;;;5051787;28;20185;-73
2022/06/06 06:57:48;;;;;;;7.85;6.30;;;;;;;;;;5050427;28;20189;-73
2022/06/06 07:00:18;;;;;;;8.80;6.00;;;;;;;;;;5036235;28;20539;-73
2022/06/06 07:08:32;;;;;;;6.85;4.97;;;;;;;;;;5048588;28;20192;-73
2022/06/06 07:11:04;;;;;;;7.57;6.30;;;;;;;;;;5048116;28;20204;-73
2022/06/06 07:13:44;;;;;;;7.25;5.38;;;;;;;;;;5045291;28;20261;-73
2022/06/06 07:16:20;;;;;;;9.18;5.90;;;;;;;;;;5050343;28;20189;-73
2022/06/06 07:18:47;;;;;;;6.65;5.18;;;;;;;;;;5044613;28;20546;-73
2022/06/06 07:21:13;;;;;;;8.68;5.65;;;;;;;;;;5038189;28;20194;-73
2022/06/06 07:23:39;;;;;;;5.68;4.60;;;;;;;;;;5047086;28;20290;-72
2022/06/06 07:26:06;;;;;;;6.18;4.63;;;;;;;;;;5048999;28;20233;-73
2022/06/06 07:28:31;;;;;;;7.03;4.28;;;;;;;;;;5050798;28;20177;-73
2022/06/06 07:31:12;;;;;;;6.07;4.45;;;;;;;;;;5045631;28;20183;-73
2022/06/06 07:33:40;;;;;;;6.50;4.78;;;;;;;;;;5044760;28;20178;-73
2022/06/06 07:36:05;;;;;;;5.80;4.72;;;;;;;;;;5044390;28;20222;-72
2022/06/06 07:38:44;;;;;;;5.67;4.57;;;;;;;;;;5039761;28;20264;-72
2022/06/06 07:41:15;;;;;;;6.55;4.28;;;;;;;;;;5036445;28;20438;-73
2022/06/06 07:43:58;;;;;;;5.07;4.57;;;;;;;;;;5036326;28;20194;-72
2022/06/06 07:46:27;;;;;;;6.65;4.20;;;;;;;;;;5042953;28;20271;-72
2022/06/06 07:49:04;;;;;;;5.18;3.92;;;;;;;;;;5039395;28;20636;-73
2022/06/06 07:51:47;;;;;;;4.72;3.42;;;;;;;;;;5045727;28;20235;-72
2022/06/06 07:54:17;;;;;;;4.70;3.42;;;;;;;;;;5045161;28;20178;-73
2022/06/06 07:56:45;;;;;;;5.10;3.65;;;;;;;;;;5047821;28;20730;-72
2022/06/06 07:59:17;;;;;;;8.20;3.65;;;;;;;;;;5039850;28;20278;-71
2022/06/06 08:01:42;;;;;;;3.58;3.10;;;;;;;;;;5020475;28;20238;-72
2022/06/06 08:04:29;;;;;;;5.83;3.17;;;;;;;;;;5035942;28;20679;-72
2022/06/06 08:06:55;;;;;;;6.47;4.35;;;;;;;;;;5039349;28;20421;-72
2022/06/06 08:09:41;;;;;;;6.53;3.80;;;;;;;;;;5045513;28;20265;-72
2022/06/06 08:12:24;;;;;;;5.30;3.45;;;;;;;;;;5040540;28;20475;-72
2022/06/06 08:15:08;;;;;;;5.38;3.20;;;;;;;;;;5042724;28;20198;-72
2022/06/06 08:17:52;;;;;;;6.00;3.20;;;;;;;;;;5033926;28;20213;-73
2022/06/06 08:20:29;;;;;;;6.35;4.20;;;;;;;;;;5045333;28;20184;-73
2022/06/06 08:22:57;;;;;;;4.03;3.30;;;;;;;;;;5046248;28;20643;-73
2022/06/06 08:25:23;;;;;;;4.32;3.45;;;;;;;;;;5042789;28;20194;-73
2022/06/06 08:27:50;;;;;;;6.90;3.17;;;;;;;;;;5038570;28;20704;-73
2022/06/06 08:30:16;;;;;;;10.15;3.33;;;;;;;;;;5040367;28;20177;-72
2022/06/06 08:32:42;;;;;;;4.72;3.42;;;;;;;;;;5036512;28;20244;-72
2022/06/06 08:35:07;;;;;;;4.00;2.92;;;;;;;;;;5037374;28;20622;-72
2022/06/06 08:38:08;;;;;;;3.35;2.58;;;;;;;;;;5032147;28;20179;-73
2022/06/06 08:40:49;;;;;;;4.60;2.40;;;;;;;;;;5019740;28;20264;-73
2022/06/06 08:43:14;;;;;;;4.40;2.55;;;;;;;;;;5036652;28;20268;-74
2022/06/06 08:45:59;;;;;;;4.10;2.60;;;;;;;;;;5037218;28;20217;-71
2022/06/06 08:48:54;;;;;;;3.17;2.58;;;;;;;;;;5037354;28;20457;-73
2022/06/06 08:51:28;;;;;;;3.88;2.60;;;;;;;;;;5046622;28;20196;-72
2022/06/06 08:54:08;;;;;;;3.08;2.00;;;;;;;;;;5041409;28;20204;-72
2022/06/06 08:56:52;;;;;;;4.15;2.58;;;;;;;;;;5049611;28;20200;-72
2022/06/06 08:59:23;;;;;;;3.63;1.88;;;;;;;;;;5038918;28;20572;-72
2022/06/06 09:02:00;;;;;;;2.88;2.13;;;;;;;;;;5033280;28;20541;-73
2022/06/06 09:04:46;;;;;;;3.80;1.83;;;;;;;;;;5038958;28;20317;-72
2022/06/06 09:07:14;;;;;;;2.03;1.58;;;;;;;;;;5038252;28;20178;-72
2022/06/06 09:09:51;;;;;;;2.55;1.60;;;;;;;;;;5043442;28;20272;-72
2022/06/06 09:12:31;;;;;;;3.33;2.13;;;;;;;;;;5036245;28;20198;-72
2022/06/06 09:15:15;;;;;;;2.92;1.85;;;;;;;;;;5036833;28;20197;-73
2022/06/06 09:17:43;;;;;;;4.50;1.90;;;;;;;;;;5045276;28;20182;-72
2022/06/06 09:20:11;;;;;;;6.93;1.92;;;;;;;;;;5047199;28;20182;-73
2022/06/06 09:22:43;;;;;;;2.97;1.67;;;;;;;;;;5045028;28;20197;-72
2022/06/06 09:25:38;;;;;;;2.88;1.20;;;;;;;;;;5045252;28;20729;-72
2022/06/06 09:28:03;;;;;;;3.55;1.83;;;;;;;;;;5020448;28;20193;-73
2022/06/06 09:30:31;;;;;;;4.30;1.57;;;;;;;;;;5044967;28;20182;-72
2022/06/06 09:33:03;;;;;;;4.82;2.00;;;;;;;;;;5044081;28;20963;-72
2022/06/06 09:35:31;;;;;;;2.28;1.58;;;;;;;;;;5041193;28;20574;-71
2022/06/06 09:38:03;;;;;;;3.55;2.05;;;;;;;;;;5037243;28;20904;-71
2022/06/06 09:40:28;;;;;;;2.63;1.80;;;;;;;;;;5038585;28;20640;-71
2022/06/06 09:43:00;;;;;;;2.45;1.50;;;;;;;;;;5037392;28;20181;-72
2022/06/06 09:45:29;;;;;;;4.45;1.65;;;;;;;;;;5042701;28;20244;-71
2022/06/06 09:48:13;;;;;;;4.15;1.63;;;;;;;;;;5033954;28;20179;-71
2022/06/06 09:50:56;;;;;;;2.05;1.13;;;;;;;;;;5040144;28;20178;-71
2022/06/06 09:53:41;;;;;;;3.72;1.30;;;;;;;;;;5037425;28;20273;-71
2022/06/06 09:59:12;;;;;;;2.97;1.40;;;;;;;;;;5032143;28;20685;-71
2022/06/06 10:01:58;;;;;;;2.40;1.08;;;;;;;;;;5045631;28;20190;-71
2022/06/06 10:04:26;;;;;;;2.05;1.30;;;;;;;;;;5045880;28;20350;-72
2022/06/06 10:06:54;;;;;;;3.08;1.13;;;;;;;;;;5035892;28;20197;-71
2022/06/06 10:09:46;;;;;;;1.38;0.90;;;;;;;;;;5040157;28;20260;-71
2022/06/06 10:12:20;;;;;;;3.28;1.27;;;;;;;;;;5045771;28;20209;-72
2022/06/06 10:14:51;;;;;;;3.35;1.30;;;;;;;;;;5044558;28;20232;-72
2022/06/06 10:17:26;;;;;;;2.38;1.60;;;;;;;;;;5047087;28;20200;-72
2022/06/06 10:19:51;;;;;;;5.43;2.72;;;;;;;;;;5041966;28;20674;-71
2022/06/06 10:22:43;;;;;;;3.27;1.70;;;;;;;;;;5035328;28;20193;-71
2022/06/06 10:25:08;;;;;;;3.83;2.35;;;;;;;;;;5041105;28;20817;-71
2022/06/06 10:27:52;;;;;;;3.93;2.43;;;;;;;;;;5031433;28;20178;-72
2022/06/06 10:30:32;;;;;;;3.25;2.40;;;;;;;;;;5044249;28;20423;-73
2022/06/06 10:33:36;;;;;;;4.47;3.10;;;;;;;;;;5044069;28;20201;-73
2022/06/06 10:36:12;;;;;;;5.07;3.50;;;;;;;;;;5016490;28;20265;-73
2022/06/06 10:38:49;;;;;;;5.90;3.75;;;;;;;;;;5018181;28;20292;-73
2022/06/06 10:41:32;;;;;;;4.55;3.55;;;;;;;;;;5025994;28;20189;-73
2022/06/06 10:44:19;;;;;;;5.05;2.92;;;;;;;;;;5029635;28;20693;-72
2022/06/06 10:46:47;;;;;;;4.63;3.20;;;;;;;;;;5031137;28;20206;-74
2022/06/06 10:49:31;;;;;;;5.35;2.67;;;;;;;;;;5040977;28;20174;-73
2022/06/06 10:52:14;;;;;;;5.20;3.00;;;;;;;;;;5035955;28;20212;-73
2022/06/06 10:54:39;;;;;;;3.05;2.47;;;;;;;;;;5047704;28;20188;-75
2022/06/06 10:57:23;;;;;;;3.28;2.20;;;;;;;;;;5039377;28;20178;-74
2022/06/06 11:00:07;;;;;;;3.67;2.10;;;;;;;;;;5036096;28;20272;-73
2022/06/06 11:02:38;;;;;;;4.50;2.13;;;;;;;;;;5046600;28;20186;-72
2022/06/06 11:05:21;;;;;;;5.47;2.05;;;;;;;;;;5030155;28;20655;-75
2022/06/06 11:07:53;;;;;;;2.85;2.38;;;;;;;;;;5039445;28;20177;-72
2022/06/06 11:10:36;;;;;;;4.55;3.05;;;;;;;;;;5036541;28;20196;-75
2022/06/06 11:13:17;;;;;;;2.67;2.40;;;;;;;;;;5041225;28;20178;-72
2022/06/06 11:15:52;;;;;;;3.47;2.58;;;;;;;;;;5033052;28;20185;-72
2022/06/06 11:18:36;;;;;;;3.05;2.70;;;;;;;;;;5034569;28;20177;-72
2022/06/06 11:21:24;;;;;;;5.03;2.78;;;;;;;;;;5035103;28;20201;-72
2022/06/06 11:23:55;;;;;;;3.80;3.20;;;;;;;;;;5026692;28;20691;-72
2022/06/06 11:26:34;;;;;;;4.28;2.92;;;;;;;;;;5036257;28;20225;-72
2022/06/06 11:29:03;;;;;;;5.72;3.30;;;;;;;;;;5042005;28;20178;-72
2022/06/06 11:31:36;;;;;;;4.28;2.85;;;;;;;;;;5039584;28;20174;-72
2022/06/06 11:34:01;;;;;;;3.17;2.67;;;;;;;;;;5037210;28;20171;-72
2022/06/06 11:36:44;;;;;;;9.05;3.22;;;;;;;;;;5041698;28;20202;-72
2022/06/06 11:39:28;;;;;;;3.88;3.00;;;;;;;;;;5032906;28;20193;-73
2022/06/06 11:41:59;;;;;;;3.85;3.00;;;;;;;;;;5042416;28;20186;-72
2022/06/06 11:44:30;;;;;;;3.58;2.95;;;;;;;;;;5039960;28;20297;-73
2022/06/06 11:47:08;;;;;;;4.43;2.60;;;;;;;;;;5035003;28;20174;-76
2022/06/06 11:49:39;;;;;;;6.13;3.10;;;;;;;;;;5040598;28;20288;-76
2022/06/06 11:52:16;;;;;;;5.82;3.20;;;;;;;;;;5039163;28;20257;-76
2022/06/06 11:54:41;;;;;;;4.30;3.60;;;;;;;;;;5042552;28;20545;-75
2022/06/06 11:57:25;;;;;;;4.27;3.07;;;;;;;;;;5040079;28;20277;-75
2022/06/06 12:00:11;;;;;;;4.15;2.95;;;;;;;;;;5037395;28;20952;-75
2022/06/06 12:02:42;;;;;;;4.07;2.92;;;;;;;;;;5032877;28;20197;-76
2022/06/06 12:05:26;;;;;;;6.95;3.35;;;;;;;;;;5039253;28;20267;-75
2022/06/06 12:07:58;;;;;;;6.32;3.35;;;;;;;;;;5040977;28;20178;-75
2022/06/06 12:10:25;;;;;;;6.50;3.72;;;;;;;;;;5040241;28;20181;-75
2022/06/06 12:12:56;;;;;;;5.78;3.70;;;;;;;;;;5043274;28;20195;-72
2022/06/06 12:15:30;;;;;;;7.38;4.43;;;;;;;;;;5045310;28;20750;-72
2022/06/06 12:18:13;;;;;;;5.38;4.75;;;;;;;;;;5039272;28;20177;-72
2022/06/06 12:20:50;;;;;;;5.82;4.43;;;;;;;;;;5047578;28;20177;-72
2022/06/06 12:23:36;;;;;;;5.68;4.10;;;;;;;;;;5039522;28;20209;-71
2022/06/06 12:26:04;;;;;;;10.57;4.25;;;;;;;;;;5032091;28;20206;-74
2022/06/06 12:28:38;;;;;;;7.07;4.22;;;;;;;;;;5040726;28;20182;-74
2022/06/06 12:31:24;;;;;;;8.15;5.93;;;;;;;;;;5039168;28;20643;-72
2022/06/06 12:33:52;;;;;;;5.22;4.72;;;;;;;;;;5014051;28;20204;-72
2022/06/06 12:36:18;;;;;;;5.93;4.38;;;;;;;;;;5036562;28;20630;-72
2022/06/06 12:38:49;;;;;;;4.05;3.60;;;;;;;;;;5034094;28;20186;-73
2022/06/06 12:41:17;;;;;;;4.80;3.88;;;;;;;;;;5039369;28;20679;-73
2022/06/06 12:43:42;;;;;;;5.43;4.13;;;;;;;;;;5040500;28;20678;-73
2022/06/06 12:46:07;;;;;;;5.30;4.37;;;;;;;;;;5038908;28;20203;-74
2022/06/06 12:49:05;;;;;;;6.87;5.20;;;;;;;;;;5044757;28;20491;-73
2022/06/06 12:51:43;;;;;;;5.68;5.20;;;;;;;;;;5025976;28;20439;-75
2022/06/06 12:54:16;;;;;;;6.28;5.65;;;;;;;;;;5040286;28;20184;-73
2022/06/06 12:57:03;;;;;;;6.95;4.93;;;;;;;;;;5042336;28;20640;-74
2022/06/06 12:59:28;;;;;;;7.95;5.72;;;;;;;;;;5035874;28;20202;-74
2022/06/06 13:01:53;;;;;;;6.20;5.30;;;;;;;;;;5039373;28;20671;-75
2022/06/06 13:04:21;;;;;;;5.90;5.30;;;;;;;;;;5047733;28;20212;-75
2022/06/06 13:07:01;;;;;;;8.50;6.13;;;;;;;;;;5042350;28;20446;-75
2022/06/06 13:09:26;;;;;;;6.85;6.15;;;;;;;;;;5042362;28;20189;-77
2022/06/06 13:12:07;;;;;;;7.38;6.68;;;;;;;;;;5036314;28;20587;-77
2022/06/06 13:14:41;;;;;;;6.78;6.18;;;;;;;;;;5040715;28;20184;-75
2022/06/06 13:17:42;;;;;;;6.47;5.85;;;;;;;;;;5049355;28;20658;-76
2022/06/06 13:20:10;;;;;;;6.18;5.18;;;;;;;;;;5058319;28;20550;-76
2022/06/06 13:22:38;;;;;;;5.55;5.00;;;;;;;;;;5048929;28;20194;-76
2022/06/06 13:25:22;;;;;;;7.45;5.18;;;;;;;;;;5042324;28;20213;-76
2022/06/06 13:27:56;;;;;;;4.05;3.75;;;;;;;;;;5043039;28;20208;-76
2022/06/06 13:30:29;;;;;;;4.47;3.08;;;;;;;;;;5046521;28;20256;-75
2022/06/06 13:32:54;;;;;;;6.70;3.65;;;;;;;;;;5040145;28;20206;-76
2022/06/06 13:35:20;;;;;;;3.15;2.28;;;;;;;;;;5040923;28;20225;-76
2022/06/06 13:37:57;;;;;;;3.75;2.55;;;;;;;;;;5035946;28;20780;-77
2022/06/06 13:40:38;;;;;;;4.55;2.70;;;;;;;;;;5042939;28;20170;-76
2022/06/06 13:43:06;;;;;;;4.82;2.78;;;;;;;;;;5037350;28;20170;-76
2022/06/06 13:45:46;;;;;;;4.45;2.60;;;;;;;;;;5041148;28;20282;-75
2022/06/06 13:48:18;;;;;;;2.75;2.35;;;;;;;;;;5037845;28;20177;-76
2022/06/06 13:51:02;;;;;;;2.38;1.73;;;;;;;;;;5038443;28;20187;-75
2022/06/06 13:53:39;;;;;;;4.43;2.65;;;;;;;;;;5042365;28;20186;-75
2022/06/06 13:56:08;;;;;;;2.97;2.15;;;;;;;;;;5039479;28;20638;-74
2022/06/06 13:58:34;;;;;;;3.15;1.88;;;;;;;;;;5037833;28;20178;-75
2022/06/06 14:01:08;;;;;;;3.47;2.40;;;;;;;;;;5032018;28;20666;-75
2022/06/06 14:03:44;;;;;;;3.35;2.20;;;;;;;;;;5045624;28;20213;-75
2022/06/06 14:06:19;;;;;;;5.95;2.20;;;;;;;;;;5043497;28;20812;-74
2022/06/06 14:08:50;;;;;;;3.20;2.10;;;;;;;;;;5037408;28;20257;-74
2022/06/06 14:11:17;;;;;;;2.20;1.60;;;;;;;;;;5041366;28;20273;-75
2022/06/06 14:13:43;;;;;;;3.97;1.65;;;;;;;;;;5043291;28;20220;-74
2022/06/06 14:16:17;;;;;;;2.42;1.73;;;;;;;;;;5041762;28;20222;-76
2022/06/06 14:18:43;;;;;;;2.67;1.58;;;;;;;;;;5036910;28;20535;-75
2022/06/06 14:21:08;;;;;;;2.15;1.52;;;;;;;;;;5036152;28;20269;-75
2022/06/06 14:23:35;;;;;;;3.15;1.80;;;;;;;;;;5035024;28;20739;-75
2022/06/06 14:26:02;;;;;;;2.25;2.05;;;;;;;;;;5040397;28;20277;-75
2022/06/06 14:28:29;;;;;;;3.53;2.30;;;;;;;;;;5032668;28;20179;-75
2022/06/06 14:30:54;;;;;;;7.55;2.60;;;;;;;;;;5041256;28;20169;-77
2022/06/06 14:33:24;;;;;;;3.13;2.67;;;;;;;;;;5040716;28;20182;-75
2022/06/06 14:35:50;;;;;;;2.35;2.13;;;;;;;;;;5043259;28;20202;-75
2022/06/06 14:38:26;;;;;;;4.63;2.40;;;;;;;;;;5039650;28;20178;-77
2022/06/06 14:40:59;;;;;;;2.47;2.28;;;;;;;;;;5036774;28;20533;-75
2022/06/06 14:43:26;;;;;;;2.85;2.10;;;;;;;;;;5035269;28;20259;-76
2022/06/06 14:45:55;;;;;;;5.25;2.40;;;;;;;;;;5037589;28;20205;-75
2022/06/06 14:48:31;;;;;;;2.97;2.20;;;;;;;;;;5039390;28;20174;-74
2022/06/06 14:50:57;;;;;;;2.42;2.20;;;;;;;;;;5035987;28;20177;-75
2022/06/06 14:53:26;;;;;;;2.78;2.25;;;;;;;;;;5031477;28;20182;-75
2022/06/06 14:55:54;;;;;;;5.82;2.92;;;;;;;;;;5038483;28;20201;-76
2022/06/06 14:58:23;;;;;;;2.83;2.35;;;;;;;;;;5038638;28;20754;-76
2022/06/06 15:00:50;;;;;;;4.90;3.10;;;;;;;;;;5043973;28;20174;-76
2022/06/06 15:03:16;;;;;;;4.35;3.20;;;;;;;;;;5044372;28;20204;-77
2022/06/06 15:05:41;;;;;;;6.03;3.38;;;;;;;;;;5037551;28;20194;-76
2022/06/06 15:08:25;;;;;;;5.70;3.58;;;;;;;;;;5042546;28;20656;-76
2022/06/06 15:10:55;;;;;;;4.65;2.78;;;;;;;;;;5041683;28;20190;-76
2022/06/06 15:13:21;;;;;;;4.43;3.30;;;;;;;;;;5049191;28;20178;-74
2022/06/06 15:15:47;;;;;;;3.97;3.30;;;;;;;;;;5046661;28;20231;-76
2022/06/06 15:18:18;;;;;;;4.40;3.17;;;;;;;;;;5036157;28;20265;-77